sensor_id;sensor_type;location;lat;lon;timestamp;P1;durP1;ratioP1;P2;durP2;ratioP2
29414;SDS011;20303;48.302;11.914;2022-09-06T00:04:14;10.73;;;5.50;;
29414;SDS011;20303;48.302;11.914;2022-09-06T00:14:16;8.13;;;5.60;;
29414;SDS011;20303;48.302;11.914;2022-09-06T00:24:17;18.90;;;6.22;;
29414;SDS011;20303;48.302;11.914;2022-09-06T00:34:18;13.18;;;6.10;;
29414;SDS011;20303;48.302;11.914;2022-09-06T00:44:19;15.45;;;6.78;;
29414;SDS011;20303;48.302;11.914;2022-09-06T00:54:20;13.07;;;7.07;;
29414;SDS011;20303;48.302;11.914;2022-09-06T01:04:22;13.07;;;7.13;;
29414;SDS011;20303;48.302;11.914;2022-09-06T01:24:36;16.70;;;7.75;;
29414;SDS011;20303;48.302;11.914;2022-09-06T01:45:30;9.32;;;7.22;;
29414;SDS011;20303;48.302;11.914;2022-09-06T01:55:47;12.95;;;8.00;;
29414;SDS011;20303;48.302;11.914;2022-09-06T02:06:02;21.45;;;8.45;;
29414;SDS011;20303;48.302;11.914;2022-09-06T02:16:07;18.13;;;7.85;;
29414;SDS011;20303;48.302;11.914;2022-09-06T02:36:16;15.27;;;8.20;;
29414;SDS011;20303;48.302;11.914;2022-09-06T02:46:18;12.55;;;7.88;;
29414;SDS011;20303;48.302;11.914;2022-09-06T02:56:19;10.63;;;8.57;;
29414;SDS011;20303;48.302;11.914;2022-09-06T03:06:20;13.13;;;8.52;;
29414;SDS011;20303;48.302;11.914;2022-09-06T03:16:21;9.88;;;8.80;;
29414;SDS011;20303;48.302;11.914;2022-09-06T03:26:22;13.10;;;8.90;;
29414;SDS011;20303;48.302;11.914;2022-09-06T03:36:23;11.27;;;9.23;;
29414;SDS011;20303;48.302;11.914;2022-09-06T03:46:25;14.55;;;9.10;;
29414;SDS011;20303;48.302;11.914;2022-09-06T03:56:29;14.77;;;9.40;;
29414;SDS011;20303;48.302;11.914;2022-09-06T04:06:30;18.63;;;8.85;;
29414;SDS011;20303;48.302;11.914;2022-09-06T04:16:31;31.17;;;9.77;;
29414;SDS011;20303;48.302;11.914;2022-09-06T04:26:32;24.08;;;9.18;;
29414;SDS011;20303;48.302;11.914;2022-09-06T04:36:34;24.08;;;9.23;;
29414;SDS011;20303;48.302;11.914;2022-09-06T04:46:36;36.58;;;9.85;;
29414;SDS011;20303;48.302;11.914;2022-09-06T04:56:39;17.77;;;8.27;;
29414;SDS011;20303;48.302;11.914;2022-09-06T05:06:40;16.55;;;7.72;;
29414;SDS011;20303;48.302;11.914;2022-09-06T05:16:42;10.18;;;6.90;;
29414;SDS011;20303;48.302;11.914;2022-09-06T05:26:45;9.45;;;7.50;;
29414;SDS011;20303;48.302;11.914;2022-09-06T05:36:46;12.00;;;6.45;;
29414;SDS011;20303;48.302;11.914;2022-09-06T05:46:47;9.70;;;7.65;;
29414;SDS011;20303;48.302;11.914;2022-09-06T05:56:48;9.55;;;7.00;;
29414;SDS011;20303;48.302;11.914;2022-09-06T06:06:49;9.70;;;7.93;;
29414;SDS011;20303;48.302;11.914;2022-09-06T06:16:50;10.68;;;7.30;;
29414;SDS011;20303;48.302;11.914;2022-09-06T06:26:51;12.20;;;7.05;;
29414;SDS011;20303;48.302;11.914;2022-09-06T06:36:52;10.65;;;6.78;;
29414;SDS011;20303;48.302;11.914;2022-09-06T06:46:53;10.10;;;6.50;;
29414;SDS011;20303;48.302;11.914;2022-09-06T06:56:56;7.07;;;5.75;;
29414;SDS011;20303;48.302;11.914;2022-09-06T07:06:57;6.50;;;5.82;;
29414;SDS011;20303;48.302;11.914;2022-09-06T07:16:59;6.78;;;5.63;;
29414;SDS011;20303;48.302;11.914;2022-09-06T07:27:00;8.48;;;5.35;;
29414;SDS011;20303;48.302;11.914;2022-09-06T07:37:01;9.30;;;4.75;;
29414;SDS011;20303;48.302;11.914;2022-09-06T07:47:02;9.98;;;4.90;;
29414;SDS011;20303;48.302;11.914;2022-09-06T07:57:05;8.23;;;4.90;;
29414;SDS011;20303;48.302;11.914;2022-09-06T08:07:06;5.97;;;4.70;;
29414;SDS011;20303;48.302;11.914;2022-09-06T08:17:08;5.82;;;4.30;;
29414;SDS011;20303;48.302;11.914;2022-09-06T08:27:10;7.13;;;4.22;;
29414;SDS011;20303;48.302;11.914;2022-09-06T08:37:11;7.60;;;3.97;;
29414;SDS011;20303;48.302;11.914;2022-09-06T08:47:16;5.32;;;3.40;;
29414;SDS011;20303;48.302;11.914;2022-09-06T09:18:24;4.55;;;3.10;;
29414;SDS011;20303;48.302;11.914;2022-09-06T09:28:26;3.78;;;2.72;;
29414;SDS011;20303;48.302;11.914;2022-09-06T09:38:32;5.03;;;3.08;;
29414;SDS011;20303;48.302;11.914;2022-09-06T09:48:45;5.70;;;2.72;;
29414;SDS011;20303;48.302;11.914;2022-09-06T09:59:04;4.65;;;2.80;;
29414;SDS011;20303;48.302;11.914;2022-09-06T10:09:12;6.70;;;2.67;;
29414;SDS011;20303;48.302;11.914;2022-09-06T10:19:42;8.35;;;3.72;;
29414;SDS011;20303;48.302;11.914;2022-09-06T10:40:07;4.77;;;2.90;;
29414;SDS011;20303;48.302;11.914;2022-09-06T10:50:10;5.47;;;2.80;;
29414;SDS011;20303;48.302;11.914;2022-09-06T11:00:11;4.07;;;2.53;;
29414;SDS011;20303;48.302;11.914;2022-09-06T11:10:23;5.05;;;2.60;;
29414;SDS011;20303;48.302;11.914;2022-09-06T11:31:31;3.92;;;2.40;;
29414;SDS011;20303;48.302;11.914;2022-09-06T11:41:34;4.38;;;2.10;;
29414;SDS011;20303;48.302;11.914;2022-09-06T11:51:39;3.30;;;1.83;;
29414;SDS011;20303;48.302;11.914;2022-09-06T12:11:59;2.63;;;1.60;;
29414;SDS011;20303;48.302;11.914;2022-09-06T12:22:00;3.17;;;1.70;;
29414;SDS011;20303;48.302;11.914;2022-09-06T12:32:01;3.25;;;1.95;;
29414;SDS011;20303;48.302;11.914;2022-09-06T12:42:06;4.38;;;1.88;;
29414;SDS011;20303;48.302;11.914;2022-09-06T12:52:12;3.92;;;1.85;;
29414;SDS011;20303;48.302;11.914;2022-09-06T13:02:15;3.83;;;1.83;;
29414;SDS011;20303;48.302;11.914;2022-09-06T13:12:50;2.83;;;1.75;;
29414;SDS011;20303;48.302;11.914;2022-09-06T13:22:52;2.78;;;1.80;;
29414;SDS011;20303;48.302;11.914;2022-09-06T13:33:06;3.97;;;1.80;;
29414;SDS011;20303;48.302;11.914;2022-09-06T13:43:20;3.33;;;1.70;;
29414;SDS011;20303;48.302;11.914;2022-09-06T13:53:22;4.63;;;1.75;;
29414;SDS011;20303;48.302;11.914;2022-09-06T14:03:25;3.22;;;1.50;;
29414;SDS011;20303;48.302;11.914;2022-09-06T14:13:29;3.20;;;1.80;;
29414;SDS011;20303;48.302;11.914;2022-09-06T14:23:31;3.28;;;1.60;;
29414;SDS011;20303;48.302;11.914;2022-09-06T14:33:32;4.22;;;1.85;;
29414;SDS011;20303;48.302;11.914;2022-09-06T14:43:33;5.57;;;1.67;;
29414;SDS011;20303;48.302;11.914;2022-09-06T14:53:41;3.22;;;1.50;;
29414;SDS011;20303;48.302;11.914;2022-09-06T15:03:45;4.78;;;1.90;;
29414;SDS011;20303;48.302;11.914;2022-09-06T15:13:47;3.47;;;2.10;;
29414;SDS011;20303;48.302;11.914;2022-09-06T15:23:49;5.75;;;1.90;;
29414;SDS011;20303;48.302;11.914;2022-09-06T15:33:51;6.70;;;2.00;;
29414;SDS011;20303;48.302;11.914;2022-09-06T15:43:53;8.70;;;1.90;;
29414;SDS011;20303;48.302;11.914;2022-09-06T15:53:55;4.40;;;1.90;;
29414;SDS011;20303;48.302;11.914;2022-09-06T16:03:58;8.32;;;2.42;;
29414;SDS011;20303;48.302;11.914;2022-09-06T16:14:03;5.90;;;2.20;;
29414;SDS011;20303;48.302;11.914;2022-09-06T16:24:06;7.88;;;2.60;;
29414;SDS011;20303;48.302;11.914;2022-09-06T16:34:09;6.03;;;2.35;;
29414;SDS011;20303;48.302;11.914;2022-09-06T16:44:11;7.72;;;2.33;;
29414;SDS011;20303;48.302;11.914;2022-09-06T16:54:15;7.03;;;3.30;;
29414;SDS011;20303;48.302;11.914;2022-09-06T17:04:17;10.10;;;3.95;;
29414;SDS011;20303;48.302;11.914;2022-09-06T17:14:18;10.88;;;4.28;;
29414;SDS011;20303;48.302;11.914;2022-09-06T17:24:19;8.02;;;3.55;;
29414;SDS011;20303;48.302;11.914;2022-09-06T17:34:20;8.55;;;3.70;;
29414;SDS011;20303;48.302;11.914;2022-09-06T17:44:22;6.22;;;3.40;;
29414;SDS011;20303;48.302;11.914;2022-09-06T17:54:24;7.18;;;3.10;;
29414;SDS011;20303;48.302;11.914;2022-09-06T18:04:25;7.20;;;2.92;;
29414;SDS011;20303;48.302;11.914;2022-09-06T18:14:26;8.43;;;3.22;;
29414;SDS011;20303;48.302;11.914;2022-09-06T18:24:28;6.78;;;3.20;;
29414;SDS011;20303;48.302;11.914;2022-09-06T18:34:29;7.90;;;3.30;;
29414;SDS011;20303;48.302;11.914;2022-09-06T18:44:30;9.77;;;3.40;;
29414;SDS011;20303;48.302;11.914;2022-09-06T18:54:33;6.13;;;3.17;;
29414;SDS011;20303;48.302;11.914;2022-09-06T19:04:34;8.82;;;3.08;;
29414;SDS011;20303;48.302;11.914;2022-09-06T19:14:35;8.82;;;3.03;;
29414;SDS011;20303;48.302;11.914;2022-09-06T19:24:36;13.45;;;3.13;;
29414;SDS011;20303;48.302;11.914;2022-09-06T19:34:39;6.18;;;2.88;;
29414;SDS011;20303;48.302;11.914;2022-09-06T19:44:40;11.25;;;3.20;;
29414;SDS011;20303;48.302;11.914;2022-09-06T19:54:42;15.55;;;3.50;;
29414;SDS011;20303;48.302;11.914;2022-09-06T20:04:43;16.55;;;3.25;;
29414;SDS011;20303;48.302;11.914;2022-09-06T20:14:45;42.08;;;5.13;;
29414;SDS011;20303;48.302;11.914;2022-09-06T20:24:46;29.50;;;3.85;;
29414;SDS011;20303;48.302;11.914;2022-09-06T20:34:47;23.08;;;3.80;;
29414;SDS011;20303;48.302;11.914;2022-09-06T20:44:49;25.33;;;3.78;;
29414;SDS011;20303;48.302;11.914;2022-09-06T20:54:50;11.93;;;3.13;;
29414;SDS011;20303;48.302;11.914;2022-09-06T21:04:51;20.90;;;3.60;;
29414;SDS011;20303;48.302;11.914;2022-09-06T21:14:52;21.77;;;3.83;;
29414;SDS011;20303;48.302;11.914;2022-09-06T21:24:53;17.35;;;3.25;;
29414;SDS011;20303;48.302;11.914;2022-09-06T21:34:56;17.55;;;3.80;;
29414;SDS011;20303;48.302;11.914;2022-09-06T21:44:58;12.10;;;2.97;;
29414;SDS011;20303;48.302;11.914;2022-09-06T21:54:59;18.55;;;3.53;;
29414;SDS011;20303;48.302;11.914;2022-09-06T22:05:00;8.38;;;2.70;;
29414;SDS011;20303;48.302;11.914;2022-09-06T22:15:05;5.95;;;2.40;;
29414;SDS011;20303;48.302;11.914;2022-09-06T22:25:07;10.32;;;2.40;;
29414;SDS011;20303;48.302;11.914;2022-09-06T22:35:08;8.25;;;2.50;;
29414;SDS011;20303;48.302;11.914;2022-09-06T22:45:09;6.60;;;2.50;;
29414;SDS011;20303;48.302;11.914;2022-09-06T22:55:10;4.93;;;2.35;;
29414;SDS011;20303;48.302;11.914;2022-09-06T23:05:11;7.43;;;2.63;;
29414;SDS011;20303;48.302;11.914;2022-09-06T23:15:12;14.15;;;3.05;;
29414;SDS011;20303;48.302;11.914;2022-09-06T23:25:13;16.48;;;3.05;;
29414;SDS011;20303;48.302;11.914;2022-09-06T23:35:15;11.18;;;3.28;;
29414;SDS011;20303;48.302;11.914;2022-09-06T23:45:16;11.60;;;3.35;;
29414;SDS011;20303;48.302;11.914;2022-09-06T23:55:17;11.77;;;2.85;;
